Time;durP1;ratioP1;P1;durP2;ratioP2;P2;SDS_P1;SDS_P2;PMS_P1;PMS_P2;Temp;Humidity;BMP_temperature;BMP_pressure;BME280_temperature;BME280_humidity;BME280_pressure;Samples;Min_cycle;Max_cycle;Signal;HPM_P1;HPM_P2
2024/01/07 00:02:21;;;;;;;4.33;3.10;;;-0.60;99.90;;;;;;4999154;28;20803;-63
2024/01/07 00:04:49;;;;;;;3.87;2.63;;;-0.50;99.90;;;;;;4985984;28;20226;-63
2024/01/07 00:07:16;;;;;;;4.70;3.00;;;-1.10;99.90;;;;;;4996693;28;20202;-63
2024/01/07 00:09:43;;;;;;;7.63;2.90;;;-0.50;99.90;;;;;;4963258;28;20215;-63
2024/01/07 00:12:10;;;;;;;4.33;3.00;;;-0.50;99.90;;;;;;5007099;28;20202;-63
2024/01/07 00:14:36;;;;;;;4.80;3.30;;;-0.50;99.90;;;;;;4987901;28;20207;-63
2024/01/07 00:17:04;;;;;;;8.63;2.83;;;-0.50;99.90;;;;;;5004448;28;20814;-63
2024/01/07 00:19:31;;;;;;;4.33;3.07;;;-0.50;99.90;;;;;;4990156;28;20673;-63
2024/01/07 00:21:59;;;;;;;3.73;2.77;;;-0.30;99.90;;;;;;4996254;28;20727;-63
2024/01/07 00:24:28;;;;;;;6.93;3.50;;;-0.60;99.90;;;;;;4959069;28;20219;-63
2024/01/07 00:26:55;;;;;;;5.93;3.00;;;-0.60;99.90;;;;;;4996887;28;20654;-63
2024/01/07 00:29:22;;;;;;;2.77;2.23;;;0.00;99.90;;;;;;4993420;28;20202;-63
2024/01/07 00:31:49;;;;;;;3.67;2.70;;;-0.60;99.90;;;;;;4999592;28;20547;-63
2024/01/07 00:34:16;;;;;;;5.43;2.10;;;-0.60;99.90;;;;;;5004217;28;20215;-63
2024/01/07 00:36:42;;;;;;;2.93;2.50;;;-0.60;99.90;;;;;;4982435;28;20206;-63
2024/01/07 00:39:11;;;;;;;3.90;2.27;;;-0.70;99.90;;;;;;4964641;28;20684;-63
2024/01/07 00:41:37;;;;;;;4.27;2.00;;;-0.60;99.90;;;;;;4999669;28;20199;-63
2024/01/07 00:44:05;;;;;;;2.37;1.80;;;-0.60;99.90;;;;;;4994002;28;20770;-63
2024/01/07 00:46:31;;;;;;;4.13;2.60;;;-0.70;99.90;;;;;;4997714;28;20235;-63
2024/01/07 00:48:58;;;;;;;2.87;2.10;;;-0.30;99.90;;;;;;5002269;28;20549;-63
2024/01/07 00:51:25;;;;;;;4.13;2.10;;;-1.10;99.90;;;;;;4994435;28;20204;-63
2024/01/07 00:53:52;;;;;;;5.17;3.00;;;;;;;;;;4972923;28;20744;-63
2024/01/07 00:56:20;;;;;;;7.10;2.70;;;-0.60;99.90;;;;;;4981972;28;20390;-63
2024/01/07 00:58:47;;;;;;;2.90;1.90;;;-0.60;99.90;;;;;;4988395;28;20226;-63
2024/01/07 01:01:14;;;;;;;4.33;2.43;;;-0.60;99.90;;;;;;4981863;28;20997;-63
2024/01/07 01:03:41;;;;;;;3.20;2.30;;;;;;;;;;4998210;28;20195;-63
2024/01/07 01:06:08;;;;;;;3.30;2.20;;;-0.20;99.90;;;;;;4990266;28;20230;-63
2024/01/07 01:08:35;;;;;;;2.47;2.27;;;-0.50;99.90;;;;;;4995183;28;20203;-63
2024/01/07 01:11:02;;;;;;;2.00;1.80;;;-0.60;99.90;;;;;;4961092;28;20209;-63
2024/01/07 01:13:30;;;;;;;3.97;1.87;;;-0.60;99.90;;;;;;5006056;28;20207;-63
2024/01/07 01:15:57;;;;;;;2.47;1.97;;;-0.60;99.90;;;;;;4986567;28;20209;-63
2024/01/07 01:18:23;;;;;;;3.63;2.03;;;-0.50;99.90;;;;;;5003656;28;20217;-63
2024/01/07 01:20:50;;;;;;;3.07;2.00;;;-0.50;99.90;;;;;;4997661;28;20236;-63
2024/01/07 01:23:17;;;;;;;2.50;1.90;;;-0.60;99.90;;;;;;4987713;28;20774;-63
2024/01/07 01:25:44;;;;;;;3.17;1.90;;;;;;;;;;4995173;28;20237;-63
2024/01/07 01:28:11;;;;;;;2.90;1.90;;;-0.60;99.90;;;;;;4968214;28;20217;-63
2024/01/07 01:30:41;;;;;;;4.20;2.60;;;-0.60;99.90;;;;;;4991145;28;20208;-63
2024/01/07 01:33:08;;;;;;;3.20;2.10;;;-0.10;99.90;;;;;;4999932;28;20257;-63
2024/01/07 01:35:34;;;;;;;3.60;2.20;;;-0.60;99.90;;;;;;4999017;28;20206;-63
2024/01/07 01:38:01;;;;;;;3.43;2.47;;;-0.50;99.90;;;;;;4985401;28;21711;-63
2024/01/07 01:40:28;;;;;;;3.03;2.30;;;-0.60;99.90;;;;;;4989327;28;20298;-63
2024/01/07 01:42:55;;;;;;;1.77;1.60;;;-0.60;99.90;;;;;;4961524;28;20216;-63
2024/01/07 01:45:22;;;;;;;3.00;2.17;;;-0.60;99.90;;;;;;4990118;28;20544;-63
2024/01/07 01:47:50;;;;;;;2.83;1.97;;;-0.70;99.90;;;;;;4996418;28;20222;-63
2024/01/07 01:50:17;;;;;;;3.73;2.20;;;-0.60;99.90;;;;;;4995172;28;20757;-63
2024/01/07 01:52:45;;;;;;;2.47;1.83;;;-0.60;99.90;;;;;;4990692;28;20876;-63
2024/01/07 01:55:12;;;;;;;2.30;1.90;;;;;;;;;;4989465;28;21180;-64
2024/01/07 01:57:40;;;;;;;5.77;1.80;;;-0.50;99.90;;;;;;4997686;28;20232;-63
2024/01/07 02:00:08;;;;;;;3.47;2.00;;;-0.50;99.90;;;;;;4953628;28;20241;-63
2024/01/07 02:02:35;;;;;;;2.33;1.90;;;-0.60;99.90;;;;;;4997823;28;20324;-63
2024/01/07 02:05:04;;;;;;;4.77;2.27;;;-0.60;99.90;;;;;;4992847;28;20195;-63
2024/01/07 02:07:32;;;;;;;3.10;2.20;;;-0.60;99.90;;;;;;4999072;28;20232;-63
2024/01/07 02:09:59;;;;;;;3.43;2.07;;;-0.60;99.90;;;;;;4981472;28;20214;-63
2024/01/07 02:12:25;;;;;;;5.57;2.50;;;-0.60;99.90;;;;;;4998511;28;20218;-63
2024/01/07 02:14:52;;;;;;;3.07;1.63;;;-0.80;99.90;;;;;;4954461;28;20301;-63
2024/01/07 02:17:20;;;;;;;4.30;2.03;;;-0.60;99.90;;;;;;4987849;28;21160;-63
2024/01/07 02:19:47;;;;;;;3.40;2.00;;;-0.60;99.90;;;;;;4996536;28;20202;-63
2024/01/07 02:22:15;;;;;;;2.00;1.80;;;-0.60;99.90;;;;;;4991127;28;20194;-63
2024/01/07 02:24:44;;;;;;;2.87;1.83;;;-0.60;99.90;;;;;;4986231;28;20203;-63
2024/01/07 02:27:10;;;;;;;4.23;1.60;;;-0.40;99.90;;;;;;4990077;28;20221;-63
2024/01/07 02:29:37;;;;;;;1.90;1.50;;;-0.60;99.90;;;;;;5005490;28;20205;-63
2024/01/07 02:32:05;;;;;;;3.90;1.97;;;-0.60;99.90;;;;;;4949627;28;20475;-63
2024/01/07 02:34:32;;;;;;;3.50;1.37;;;-0.60;99.90;;;;;;5000787;28;20908;-63
2024/01/07 02:36:59;;;;;;;2.33;1.50;;;-0.70;99.90;;;;;;4992838;28;20196;-63
2024/01/07 02:39:25;;;;;;;5.27;1.97;;;-0.70;99.90;;;;;;4992449;28;20864;-63
2024/01/07 02:41:54;;;;;;;2.63;1.80;;;-0.60;99.90;;;;;;5000652;28;20199;-63
2024/01/07 02:44:21;;;;;;;2.17;1.57;;;-0.60;99.90;;;;;;4997394;28;20229;-63
2024/01/07 02:46:47;;;;;;;2.73;1.37;;;-0.60;99.90;;;;;;4966633;28;20237;-63
2024/01/07 02:49:14;;;;;;;2.43;1.63;;;-0.60;99.90;;;;;;4988821;28;20215;-63
2024/01/07 02:51:42;;;;;;;1.90;1.50;;;-0.60;99.90;;;;;;5008072;28;20777;-63
2024/01/07 02:54:09;;;;;;;4.13;1.90;;;-3.60;99.90;;;;;;4990663;28;20594;-63
2024/01/07 02:56:36;;;;;;;5.57;1.53;;;-0.60;99.90;;;;;;5004050;28;20195;-63
2024/01/07 02:59:04;;;;;;;2.23;1.50;;;-0.60;99.90;;;;;;4987861;28;20256;-63
2024/01/07 03:01:31;;;;;;;1.37;1.27;;;-0.50;99.90;;;;;;4966075;28;20207;-63
2024/01/07 03:03:58;;;;;;;1.53;1.43;;;-0.60;99.90;;;;;;4990406;28;20203;-63
2024/01/07 03:06:27;;;;;;;2.33;1.37;;;-0.60;99.90;;;;;;5007824;28;22270;-63
2024/01/07 03:08:54;;;;;;;3.60;1.53;;;-0.40;99.90;;;;;;5000194;28;20193;-63
2024/01/07 03:11:21;;;;;;;1.67;1.50;;;-0.60;99.90;;;;;;4987364;28;20200;-63
2024/01/07 03:13:48;;;;;;;4.37;1.50;;;-0.30;99.90;;;;;;4994081;28;20201;-63
2024/01/07 03:16:22;;;;;;;1.57;1.37;;;-0.60;99.90;;;;;;4963652;28;20346;-63
2024/01/07 03:18:49;;;;;;;1.67;1.23;;;-0.50;99.90;;;;;;4988757;28;20221;-63
2024/01/07 03:21:19;;;;;;;3.00;1.20;;;-0.50;99.90;;;;;;4999749;28;20869;-63
2024/01/07 03:23:46;;;;;;;2.23;1.30;;;-0.50;99.90;;;;;;4998293;28;20409;-63
2024/01/07 03:26:13;;;;;;;1.57;1.33;;;-0.50;99.90;;;;;;4989425;28;20222;-63
2024/01/07 03:28:40;;;;;;;3.83;1.33;;;-0.60;99.90;;;;;;5002941;28;20567;-63
2024/01/07 03:31:10;;;;;;;2.00;1.50;;;-0.40;99.90;;;;;;4990791;28;20305;-63
2024/01/07 03:33:38;;;;;;;3.27;1.93;;;-0.60;99.90;;;;;;4965602;28;20602;-63
2024/01/07 03:36:08;;;;;;;3.10;1.40;;;-0.60;99.90;;;;;;4991941;28;20573;-63
2024/01/07 03:38:35;;;;;;;2.50;1.07;;;-0.60;99.90;;;;;;5003483;28;20198;-63
2024/01/07 03:41:02;;;;;;;3.83;1.47;;;0.30;99.90;;;;;;4993218;28;20205;-63
2024/01/07 03:43:29;;;;;;;1.20;0.93;;;-0.70;99.90;;;;;;4990977;28;20206;-63
2024/01/07 03:45:55;;;;;;;1.97;1.50;;;-0.60;99.90;;;;;;4992254;28;20202;-63
2024/01/07 03:48:22;;;;;;;1.10;1.00;;;-0.60;99.90;;;;;;4963067;28;20398;-63
2024/01/07 03:50:51;;;;;;;3.70;1.30;;;-0.60;99.90;;;;;;4992599;28;20206;-63
2024/01/07 03:53:18;;;;;;;4.90;1.53;;;-0.90;99.90;;;;;;4997880;28;20201;-63
2024/01/07 03:55:44;;;;;;;2.13;1.40;;;-0.60;99.90;;;;;;4990682;28;20611;-63
2024/01/07 03:58:11;;;;;;;3.50;1.53;;;-0.60;99.90;;;;;;4986978;28;20893;-63
2024/01/07 04:00:38;;;;;;;1.13;1.07;;;-0.60;99.90;;;;;;4997064;28;20203;-63
2024/01/07 04:03:05;;;;;;;1.47;1.30;;;-0.60;99.90;;;;;;4953259;28;20692;-63
2024/01/07 04:05:33;;;;;;;2.63;1.43;;;-0.60;99.90;;;;;;4988168;28;20209;-63
2024/01/07 04:08:01;;;;;;;4.60;1.47;;;-0.50;99.90;;;;;;4995131;28;20232;-63
2024/01/07 04:10:28;;;;;;;1.40;1.27;;;-0.60;99.90;;;;;;4992155;28;20205;-62
2024/01/07 04:12:55;;;;;;;4.47;1.33;;;1.20;99.90;;;;;;4991541;28;20222;-63
2024/01/07 04:15:22;;;;;;;1.23;1.13;;;-0.60;99.90;;;;;;4986694;28;20201;-62
2024/01/07 04:17:48;;;;;;;1.60;1.30;;;-0.60;99.90;;;;;;4986111;28;20199;-63
2024/01/07 04:20:15;;;;;;;2.50;1.10;;;-0.60;99.90;;;;;;4961281;28;20311;-63
2024/01/07 04:22:42;;;;;;;2.37;1.30;;;-0.60;99.90;;;;;;4982262;28;20214;-63
2024/01/07 04:25:10;;;;;;;1.90;1.10;;;-0.60;99.90;;;;;;4986587;28;20212;-63
2024/01/07 04:27:37;;;;;;;1.53;1.13;;;-0.70;99.90;;;;;;4995381;28;20226;-63
2024/01/07 04:30:06;;;;;;;1.57;1.10;;;-0.70;99.90;;;;;;4979342;28;20205;-63
2024/01/07 04:32:36;;;;;;;2.93;1.17;;;-0.70;99.90;;;;;;4987840;28;20202;-63
2024/01/07 04:35:03;;;;;;;1.43;1.10;;;0.10;99.90;;;;;;4959122;28;20217;-62
2024/01/07 04:37:30;;;;;;;1.27;1.10;;;-0.80;99.90;;;;;;4993903;28;20207;-63
2024/01/07 04:39:56;;;;;;;1.90;1.50;;;-0.70;99.90;;;;;;4992856;28;20194;-63
2024/01/07 04:42:24;;;;;;;3.90;1.10;;;-0.90;99.90;;;;;;5002476;28;20206;-63
2024/01/07 04:44:51;;;;;;;1.93;1.17;;;-0.80;99.90;;;;;;4987339;28;20202;-63
2024/01/07 04:47:28;;;;;;;1.30;1.20;;;-0.90;99.90;;;;;;4995060;28;20234;-63
2024/01/07 04:49:55;;;;;;;1.93;1.30;;;;;;;;;;4968262;28;20206;-63
2024/01/07 04:52:23;;;;;;;1.20;1.10;;;-1.00;99.90;;;;;;4972707;28;20199;-63
2024/01/07 04:54:51;;;;;;;3.17;1.27;;;-1.00;99.90;;;;;;4989666;28;20211;-62
2024/01/07 04:57:17;;;;;;;1.20;1.10;;;-0.40;99.90;;;;;;4995056;28;20234;-63
2024/01/07 04:59:46;;;;;;;4.77;1.33;;;-0.50;99.90;;;;;;4986049;28;20211;-63
2024/01/07 05:02:13;;;;;;;2.73;1.27;;;-1.00;99.90;;;;;;4994247;28;20205;-63
2024/01/07 05:04:40;;;;;;;2.50;1.20;;;-1.00;99.90;;;;;;4983120;28;20207;-63
2024/01/07 05:07:07;;;;;;;2.77;1.17;;;-0.90;99.90;;;;;;4964649;28;20231;-63
2024/01/07 05:09:34;;;;;;;4.17;1.57;;;-0.90;99.90;;;;;;4986698;28;20321;-63
2024/01/07 05:12:01;;;;;;;3.43;1.00;;;-1.00;99.90;;;;;;4994094;28;20201;-63
2024/01/07 05:14:28;;;;;;;1.57;1.27;;;0.40;99.90;;;;;;4983279;28;20213;-63
2024/01/07 05:16:56;;;;;;;4.57;1.43;;;-0.80;99.90;;;;;;4992722;28;20677;-63
2024/01/07 05:19:23;;;;;;;1.40;1.27;;;-0.80;99.90;;;;;;4987783;28;20202;-63
2024/01/07 05:21:50;;;;;;;2.67;1.47;;;-0.90;99.90;;;;;;4960382;28;20253;-63
2024/01/07 05:24:17;;;;;;;1.77;1.47;;;-0.90;99.90;;;;;;4983344;28;20228;-62
2024/01/07 05:26:44;;;;;;;2.33;1.33;;;-0.90;99.90;;;;;;4994908;28;20221;-62
2024/01/07 05:29:12;;;;;;;2.17;1.13;;;-0.90;99.90;;;;;;4983492;28;20280;-62
2024/01/07 05:31:39;;;;;;;2.37;1.17;;;-0.80;99.90;;;;;;4999049;28;20870;-63
2024/01/07 05:34:07;;;;;;;1.50;1.20;;;-0.70;99.90;;;;;;4993481;28;20199;-63
2024/01/07 05:36:34;;;;;;;2.53;1.03;;;-0.80;99.90;;;;;;4954249;28;20228;-62
2024/01/07 05:39:01;;;;;;;4.23;1.33;;;-0.80;99.90;;;;;;4994337;28;20680;-62
2024/01/07 05:41:28;;;;;;;1.67;1.20;;;0.10;99.90;;;;;;4983786;28;20221;-63
2024/01/07 05:43:55;;;;;;;1.03;0.97;;;-0.80;99.90;;;;;;4995594;28;20587;-63
2024/01/07 05:46:22;;;;;;;2.93;1.60;;;-0.80;99.90;;;;;;4983711;28;20240;-62
2024/01/07 05:48:50;;;;;;;1.07;0.97;;;-1.20;99.90;;;;;;4997716;28;20226;-62
2024/01/07 05:51:18;;;;;;;2.30;1.00;;;-0.80;99.90;;;;;;4986400;28;20203;-63
2024/01/07 05:53:45;;;;;;;5.60;1.17;;;-0.70;99.90;;;;;;4959074;28;20215;-62
2024/01/07 05:56:12;;;;;;;2.40;1.27;;;-0.70;99.90;;;;;;4979618;28;20984;-62
2024/01/07 05:58:39;;;;;;;3.00;1.40;;;-0.70;99.90;;;;;;4991733;28;20235;-62
2024/01/07 06:01:08;;;;;;;2.40;1.57;;;-0.70;99.90;;;;;;4984245;28;21176;-63
2024/01/07 06:03:35;;;;;;;1.40;1.20;;;-0.70;99.90;;;;;;4990944;28;20297;-63
2024/01/07 06:06:02;;;;;;;1.47;0.97;;;-0.60;99.90;;;;;;4994947;28;20202;-63
2024/01/07 06:08:30;;;;;;;1.33;1.00;;;-0.70;99.90;;;;;;4954948;28;21098;-63
2024/01/07 06:10:57;;;;;;;4.33;0.93;;;-0.70;99.90;;;;;;4987287;28;20269;-63
2024/01/07 06:13:24;;;;;;;3.03;1.30;;;-0.80;99.90;;;;;;4993257;28;20206;-63
2024/01/07 06:15:51;;;;;;;1.53;1.10;;;-0.70;99.90;;;;;;4981496;28;20215;-63
2024/01/07 06:18:18;;;;;;;1.07;0.90;;;-0.60;99.90;;;;;;4988973;28;20207;-62
2024/01/07 06:20:45;;;;;;;1.97;1.23;;;-0.60;99.90;;;;;;4980714;28;20196;-63
2024/01/07 06:23:11;;;;;;;2.13;1.50;;;-0.30;99.90;;;;;;4991045;28;20224;-63
2024/01/07 06:25:39;;;;;;;4.03;1.13;;;-0.20;99.90;;;;;;4944668;28;20218;-62
2024/01/07 06:28:06;;;;;;;4.33;1.33;;;-0.60;99.90;;;;;;4986835;28;20228;-62
2024/01/07 06:30:33;;;;;;;3.23;1.23;;;-0.50;99.90;;;;;;4982188;28;20205;-63
2024/01/07 06:33:00;;;;;;;1.33;1.00;;;-0.50;99.90;;;;;;4983724;28;22156;-63
2024/01/07 06:35:27;;;;;;;1.67;1.13;;;-0.40;99.90;;;;;;4986822;28;20208;-62
2024/01/07 06:37:54;;;;;;;1.87;1.27;;;-0.40;99.90;;;;;;4990357;28;20378;-63
2024/01/07 06:40:21;;;;;;;3.57;1.30;;;-0.40;99.90;;;;;;4961591;28;20222;-63
2024/01/07 06:42:49;;;;;;;3.53;1.33;;;-0.60;99.90;;;;;;4980287;28;20818;-63
2024/01/07 06:45:16;;;;;;;1.37;1.07;;;-0.40;99.90;;;;;;4985828;28;20574;-63
2024/01/07 06:47:43;;;;;;;2.33;1.23;;;0.20;99.90;;;;;;4987430;28;20336;-63
2024/01/07 06:50:11;;;;;;;1.00;0.80;;;-0.40;99.90;;;;;;4995205;28;20203;-63
2024/01/07 06:52:37;;;;;;;0.80;0.80;;;-0.80;99.90;;;;;;4991423;28;20201;-63
2024/01/07 06:55:05;;;;;;;1.77;0.90;;;-0.30;99.90;;;;;;4991042;28;20197;-63
2024/01/07 06:57:31;;;;;;;2.33;0.97;;;-0.40;99.90;;;;;;4952016;28;20234;-63
2024/01/07 06:59:59;;;;;;;1.10;1.00;;;-0.40;99.90;;;;;;4995775;28;20208;-63
2024/01/07 07:02:26;;;;;;;2.40;1.00;;;-0.40;99.90;;;;;;4987473;28;20200;-63
2024/01/07 07:04:53;;;;;;;1.40;1.03;;;-0.40;99.90;;;;;;4991969;28;20559;-62
2024/01/07 07:07:20;;;;;;;1.10;1.00;;;-0.30;99.90;;;;;;4996462;28;20233;-63
2024/01/07 07:09:47;;;;;;;3.90;1.10;;;-0.30;99.90;;;;;;4992645;28;20512;-63
2024/01/07 07:12:14;;;;;;;1.20;0.80;;;-0.40;99.90;;;;;;4954422;28;20591;-63
2024/01/07 07:14:41;;;;;;;3.07;1.20;;;-0.40;99.90;;;;;;4985557;28;20213;-63
2024/01/07 07:17:09;;;;;;;1.30;1.20;;;-0.30;99.90;;;;;;4974663;28;20233;-63
2024/01/07 07:19:36;;;;;;;1.27;1.00;;;-0.30;99.90;;;;;;4992229;28;20200;-63
2024/01/07 07:22:03;;;;;;;1.57;1.00;;;-0.10;99.90;;;;;;4986269;28;20670;-63
2024/01/07 07:24:29;;;;;;;1.27;1.10;;;-0.40;99.90;;;;;;4994155;28;20210;-63
2024/01/07 07:26:56;;;;;;;1.37;1.10;;;-0.20;99.90;;;;;;4962935;28;20198;-63
2024/01/07 07:29:23;;;;;;;1.63;1.27;;;-0.40;99.90;;;;;;4972136;28;20502;-63
2024/01/07 07:31:50;;;;;;;0.80;0.80;;;-0.40;99.90;;;;;;4987634;28;20203;-63
2024/01/07 07:34:19;;;;;;;4.13;1.60;;;-0.40;99.90;;;;;;4993021;28;20843;-63
2024/01/07 07:36:46;;;;;;;2.80;1.60;;;-0.40;99.90;;;;;;5005054;28;20200;-63
2024/01/07 07:39:14;;;;;;;2.20;1.30;;;-0.40;99.90;;;;;;4995228;28;20543;-63
2024/01/07 07:41:40;;;;;;;2.03;1.17;;;-0.40;99.90;;;;;;4993986;28;20211;-63
2024/01/07 07:44:07;;;;;;;2.07;1.63;;;-0.30;99.90;;;;;;4955945;28;20522;-63
2024/01/07 07:46:34;;;;;;;2.97;1.23;;;-0.40;99.90;;;;;;5000561;28;20203;-63
2024/01/07 07:49:02;;;;;;;1.00;0.80;;;-0.20;99.90;;;;;;4985742;28;20223;-63
2024/01/07 07:51:30;;;;;;;3.30;1.27;;;-0.40;99.90;;;;;;5000457;28;20195;-63
2024/01/07 07:53:57;;;;;;;0.80;0.80;;;-0.40;99.90;;;;;;4991740;28;20690;-63
2024/01/07 07:56:24;;;;;;;3.87;1.33;;;-0.40;99.90;;;;;;4990107;28;20211;-63
2024/01/07 07:58:51;;;;;;;1.20;0.93;;;;;;;;;;4980073;28;20289;-63
2024/01/07 08:01:19;;;;;;;1.00;0.90;;;-0.40;99.90;;;;;;4969807;28;20310;-63
2024/01/07 08:03:46;;;;;;;1.83;1.43;;;-0.40;99.90;;;;;;4982191;28;20199;-63
2024/01/07 08:06:13;;;;;;;5.20;1.60;;;-0.40;99.90;;;;;;4997819;28;20602;-63
2024/01/07 08:08:41;;;;;;;2.63;1.13;;;-0.40;99.90;;;;;;4982818;28;20240;-63
2024/01/07 08:11:08;;;;;;;1.33;1.23;;;-0.30;99.90;;;;;;4987565;28;20895;-63
2024/01/07 08:13:36;;;;;;;1.33;1.20;;;-0.30;99.90;;;;;;4999940;28;20634;-63
2024/01/07 08:16:05;;;;;;;1.40;1.20;;;-0.40;99.90;;;;;;4959442;28;20637;-63
2024/01/07 08:18:32;;;;;;;1.77;1.27;;;-0.40;99.90;;;;;;4992375;28;20289;-63
2024/01/07 08:20:59;;;;;;;2.33;1.20;;;-0.40;99.90;;;;;;5000348;28;20222;-63
2024/01/07 08:23:26;;;;;;;2.53;1.33;;;-0.40;99.90;;;;;;5004228;28;20198;-62
2024/01/07 08:25:54;;;;;;;4.57;1.50;;;-0.20;99.90;;;;;;4989533;28;20201;-63
2024/01/07 08:28:21;;;;;;;1.27;1.17;;;-0.30;99.90;;;;;;4991887;28;20342;-63
2024/01/07 08:30:48;;;;;;;1.40;1.20;;;-0.30;99.90;;;;;;4964551;28;20220;-63
2024/01/07 08:33:15;;;;;;;1.20;1.10;;;-0.30;99.90;;;;;;4987493;28;20968;-63
2024/01/07 08:35:43;;;;;;;1.50;1.23;;;-0.30;99.90;;;;;;4996917;28;20197;-63
2024/01/07 08:38:09;;;;;;;1.70;1.00;;;-0.20;99.90;;;;;;4998304;28;20205;-63
2024/01/07 08:40:36;;;;;;;1.43;1.30;;;-0.30;99.90;;;;;;4991466;28;20209;-63
2024/01/07 08:43:05;;;;;;;2.23;2.03;;;-0.30;99.90;;;;;;4984352;28;20200;-63
2024/01/07 08:45:32;;;;;;;2.87;1.50;;;-0.20;99.90;;;;;;4961991;28;20752;-63
2024/01/07 08:47:59;;;;;;;1.93;1.50;;;0.40;99.90;;;;;;5001118;28;20620;-63
2024/01/07 08:50:25;;;;;;;1.73;1.37;;;-0.30;99.90;;;;;;4980401;28;20227;-63
2024/01/07 08:52:52;;;;;;;2.43;1.47;;;-0.40;99.90;;;;;;4994870;28;20194;-63
2024/01/07 08:55:19;;;;;;;1.63;1.30;;;-0.30;99.90;;;;;;4987277;28;20749;-63
2024/01/07 08:57:48;;;;;;;1.53;1.40;;;-0.20;99.90;;;;;;4996699;28;20319;-62
2024/01/07 09:00:17;;;;;;;3.50;1.83;;;-0.20;99.90;;;;;;4958092;28;20217;-63
2024/01/07 09:02:44;;;;;;;1.70;1.60;;;-0.20;99.90;;;;;;4982793;28;20473;-63
2024/01/07 09:05:12;;;;;;;2.40;1.77;;;-0.30;99.90;;;;;;4971664;28;20719;-63
2024/01/07 09:07:39;;;;;;;4.27;1.63;;;-0.20;99.90;;;;;;4981241;28;20315;-63
2024/01/07 09:10:10;;;;;;;1.67;1.57;;;-0.20;99.90;;;;;;4986883;28;20223;-63
2024/01/07 09:12:37;;;;;;;4.60;2.20;;;-0.30;99.90;;;;;;4988564;28;20428;-63
2024/01/07 09:15:07;;;;;;;3.33;2.10;;;-0.20;99.90;;;;;;4999596;28;20224;-63
2024/01/07 09:17:36;;;;;;;3.17;2.10;;;-0.30;99.90;;;;;;4959979;28;20521;-63
2024/01/07 09:20:05;;;;;;;3.73;1.93;;;-0.30;99.90;;;;;;4996527;28;20665;-63
2024/01/07 09:22:32;;;;;;;3.80;2.40;;;-0.20;99.90;;;;;;4981763;28;20692;-63
2024/01/07 09:24:59;;;;;;;3.70;2.30;;;-0.30;99.90;;;;;;5000150;28;20200;-63
2024/01/07 09:27:26;;;;;;;6.83;2.50;;;-0.30;99.90;;;;;;4988628;28;20212;-63
2024/01/07 09:29:52;;;;;;;6.87;2.67;;;-0.30;99.90;;;;;;5002386;28;20231;-63
2024/01/07 09:32:19;;;;;;;4.67;2.80;;;-0.40;99.90;;;;;;4959448;28;20933;-63
2024/01/07 09:34:47;;;;;;;4.13;2.60;;;-0.30;99.90;;;;;;4998005;28;20417;-63
2024/01/07 09:37:14;;;;;;;5.30;2.73;;;-0.30;99.90;;;;;;4986546;28;20748;-63
2024/01/07 09:39:41;;;;;;;4.10;2.77;;;0.60;99.90;;;;;;4995165;28;20205;-63
2024/01/07 09:42:13;;;;;;;2.70;2.30;;;-0.10;99.90;;;;;;4974708;28;20224;-63
2024/01/07 09:44:40;;;;;;;4.07;2.93;;;-0.10;99.90;;;;;;4996751;28;20220;-63
2024/01/07 09:47:11;;;;;;;3.63;2.63;;;-0.20;99.90;;;;;;4958516;28;20221;-63
2024/01/07 09:49:38;;;;;;;3.00;2.27;;;-0.20;99.90;;;;;;4993070;28;20333;-64
2024/01/07 09:52:08;;;;;;;5.23;2.83;;;-0.20;99.90;;;;;;4991458;28;20208;-63
2024/01/07 09:54:37;;;;;;;5.33;2.40;;;-0.20;99.90;;;;;;4984245;28;20210;-63
2024/01/07 09:57:07;;;;;;;2.63;2.43;;;-0.10;99.90;;;;;;4981917;28;20244;-63
2024/01/07 09:59:34;;;;;;;3.10;2.33;;;0.80;99.90;;;;;;4980623;28;20420;-63
2024/01/07 10:02:01;;;;;;;3.43;2.63;;;-0.10;99.90;;;;;;4950092;28;20207;-64
2024/01/07 10:04:28;;;;;;;5.40;2.47;;;-0.20;99.90;;;;;;4990449;28;20689;-63
2024/01/07 10:06:55;;;;;;;4.20;2.67;;;-0.30;99.90;;;;;;4993245;28;20973;-63
2024/01/07 10:09:26;;;;;;;2.73;2.30;;;-0.20;99.90;;;;;;4976388;28;20223;-64
2024/01/07 10:11:53;;;;;;;6.50;2.57;;;-0.10;99.90;;;;;;4974388;28;21016;-63
2024/01/07 10:14:22;;;;;;;3.20;2.40;;;-0.20;99.90;;;;;;4994068;28;20210;-63
2024/01/07 10:16:49;;;;;;;2.97;2.27;;;-0.10;99.90;;;;;;4947708;28;21787;-64
2024/01/07 10:19:21;;;;;;;3.83;2.67;;;-0.40;99.90;;;;;;4995350;28;20213;-63
2024/01/07 10:21:59;;;;;;;4.90;2.70;;;-0.70;99.90;;;;;;4996015;28;20996;-63
2024/01/07 10:24:32;;;;;;;5.33;2.37;;;-0.40;99.90;;;;;;4969932;28;21259;-63
2024/01/07 10:26:59;;;;;;;4.63;2.30;;;0.10;99.90;;;;;;4965018;28;20234;-63
2024/01/07 10:29:27;;;;;;;7.73;2.43;;;-0.40;99.90;;;;;;4999566;28;20228;-63
2024/01/07 10:31:57;;;;;;;4.73;2.73;;;-0.30;99.90;;;;;;4965206;28;20454;-63
2024/01/07 10:34:25;;;;;;;4.40;2.50;;;-0.80;99.90;;;;;;4989608;28;20200;-63
2024/01/07 10:36:56;;;;;;;4.40;2.70;;;-0.50;99.90;;;;;;4999767;28;20197;-63
2024/01/07 10:39:24;;;;;;;2.53;2.10;;;0.50;99.90;;;;;;4988165;28;22419;-63
2024/01/07 10:41:56;;;;;;;8.83;2.30;;;-0.30;99.90;;;;;;4984541;28;20206;-63
2024/01/07 10:44:24;;;;;;;4.53;2.40;;;0.10;99.90;;;;;;4981046;28;20430;-63
2024/01/07 10:46:53;;;;;;;4.73;2.57;;;-0.30;99.90;;;;;;4998457;28;20681;-63
2024/01/07 10:49:21;;;;;;;3.33;2.13;;;-0.60;99.90;;;;;;4967604;28;20249;-63
2024/01/07 10:51:57;;;;;;;2.57;2.03;;;-0.20;99.90;;;;;;4998780;28;20209;-63
2024/01/07 10:54:29;;;;;;;4.53;2.40;;;-0.20;99.90;;;;;;4979091;28;21355;-63
2024/01/07 10:57:00;;;;;;;5.00;3.13;;;-0.20;99.90;;;;;;4984125;28;20204;-64
2024/01/07 10:59:28;;;;;;;2.53;2.03;;;-0.20;99.90;;;;;;4984376;28;20202;-63
2024/01/07 11:01:56;;;;;;;6.40;2.73;;;;;;;;;;4991862;28;20219;-64
2024/01/07 11:04:31;;;;;;;7.93;2.37;;;-0.10;99.90;;;;;;4962969;28;20682;-63
2024/01/07 11:07:04;;;;;;;4.60;2.63;;;-0.10;99.90;;;;;;4991962;28;22126;-63
2024/01/07 11:09:36;;;;;;;4.13;2.10;;;-0.10;99.90;;;;;;4975639;28;20239;-63
2024/01/07 11:12:05;;;;;;;3.00;2.17;;;-0.10;99.90;;;;;;4967195;28;20340;-63
2024/01/07 11:14:36;;;;;;;2.33;2.03;;;0.00;99.90;;;;;;4981080;28;20314;-63
2024/01/07 11:17:03;;;;;;;5.40;2.67;;;;;;;;;;4961691;28;20224;-63
2024/01/07 11:19:31;;;;;;;2.90;2.17;;;0.10;99.90;;;;;;4997278;28;20999;-63
2024/01/07 11:22:23;;;;;;;4.67;2.80;;;1.70;99.90;;;;;;4997668;28;20215;-63
2024/01/07 11:24:50;;;;;;;3.23;2.43;;;0.00;99.90;;;;;;4985964;28;20524;-63
2024/01/07 11:27:18;;;;;;;4.63;2.37;;;0.00;99.90;;;;;;4976882;28;20230;-63
2024/01/07 11:29:53;;;;;;;6.83;2.90;;;0.00;99.90;;;;;;4969182;28;20445;-63
2024/01/07 11:32:22;;;;;;;3.07;2.10;;;0.40;99.90;;;;;;4996590;28;20228;-63
2024/01/07 11:34:53;;;;;;;3.33;1.93;;;0.00;99.90;;;;;;4954883;28;20214;-63
2024/01/07 11:37:21;;;;;;;6.27;2.60;;;0.00;99.90;;;;;;4988420;28;20781;-63
2024/01/07 11:39:49;;;;;;;5.27;2.30;;;0.10;99.90;;;;;;4984327;28;20232;-63
2024/01/07 11:42:18;;;;;;;4.97;2.50;;;0.10;99.90;;;;;;4962916;28;20632;-63
2024/01/07 11:44:49;;;;;;;3.73;2.30;;;0.10;99.90;;;;;;4981443;28;20228;-63
2024/01/07 11:47:16;;;;;;;3.03;1.83;;;0.00;99.90;;;;;;4997166;28;20518;-63
2024/01/07 11:49:43;;;;;;;5.27;2.67;;;0.00;99.90;;;;;;4965595;28;20236;-63
2024/01/07 11:52:11;;;;;;;3.37;2.27;;;0.20;99.90;;;;;;4977629;28;20643;-63
2024/01/07 11:54:38;;;;;;;2.90;2.10;;;0.10;99.90;;;;;;5002688;28;20983;-63
2024/01/07 11:57:05;;;;;;;3.87;2.87;;;0.10;99.90;;;;;;4966572;28;20231;-63
2024/01/07 11:59:34;;;;;;;3.13;2.30;;;0.00;99.90;;;;;;4966785;28;20229;-63
2024/01/07 12:02:04;;;;;;;3.03;2.33;;;0.10;99.90;;;;;;4994882;28;20425;-63
2024/01/07 12:04:31;;;;;;;3.97;2.40;;;0.00;99.90;;;;;;4953533;28;20242;-63
2024/01/07 12:06:58;;;;;;;7.40;2.67;;;0.10;99.90;;;;;;4973144;28;20225;-63
2024/01/07 12:09:25;;;;;;;4.03;2.37;;;0.10;99.90;;;;;;4986945;28;20247;-63
2024/01/07 12:11:52;;;;;;;8.20;2.83;;;0.10;99.90;;;;;;4956656;28;20469;-63
2024/01/07 12:14:19;;;;;;;3.93;3.00;;;0.10;99.90;;;;;;4967602;28;20229;-63
2024/01/07 12:16:48;;;;;;;3.20;2.40;;;0.10;99.90;;;;;;4985424;28;21110;-63
2024/01/07 12:19:15;;;;;;;3.37;2.43;;;0.00;99.90;;;;;;4982973;28;20224;-63
2024/01/07 12:21:41;;;;;;;5.37;2.70;;;-0.70;99.90;;;;;;4939496;28;20225;-63
2024/01/07 12:24:08;;;;;;;4.37;2.73;;;0.00;99.90;;;;;;4994885;28;20201;-64
2024/01/07 12:26:37;;;;;;;4.00;2.33;;;;;;;;;;4980625;28;20719;-63
2024/01/07 12:29:06;;;;;;;6.90;2.53;;;0.00;99.90;;;;;;4965074;28;20230;-63
2024/01/07 12:31:34;;;;;;;4.63;2.60;;;0.00;99.90;;;;;;4996038;28;20233;-63
2024/01/07 12:34:03;;;;;;;6.70;2.63;;;0.00;99.90;;;;;;4995550;28;20221;-63
2024/01/07 12:36:31;;;;;;;4.30;2.87;;;0.00;99.90;;;;;;4950275;28;20228;-63
2024/01/07 12:38:58;;;;;;;2.90;2.03;;;0.00;99.90;;;;;;4965130;28;20838;-62
2024/01/07 12:41:25;;;;;;;2.93;2.27;;;0.00;99.90;;;;;;4978799;28;20222;-63
2024/01/07 12:43:52;;;;;;;3.17;2.30;;;-0.10;99.90;;;;;;4967739;28;20224;-63
2024/01/07 12:46:19;;;;;;;3.90;2.63;;;;;;;;;;4961964;28;20407;-63
2024/01/07 12:48:46;;;;;;;7.33;3.33;;;1.90;99.90;;;;;;4978720;28;20227;-63
2024/01/07 12:51:14;;;;;;;5.33;2.83;;;-0.20;99.90;;;;;;4935648;28;20221;-63
2024/01/07 12:53:41;;;;;;;5.00;3.40;;;-0.20;99.90;;;;;;4976827;28;21179;-63